sensor_id;sensor_type;location;lat;lon;timestamp;pressure;altitude;pressure_sealevel;temperature;humidity
68855;BME280;69984;-43.570;172.580;2023-07-13T00:01:54;100671.56;;;13.11;55.97
68855;BME280;69984;-43.570;172.580;2023-07-13T00:04:22;100671.44;;;13.36;56.05
68855;BME280;69984;-43.570;172.580;2023-07-13T00:06:52;100668.31;;;13.57;54.74
68855;BME280;69984;-43.570;172.580;2023-07-13T00:09:20;100677.34;;;13.63;54.22
68855;BME280;69984;-43.570;172.580;2023-07-13T00:11:56;100666.66;;;13.32;54.26
68855;BME280;69984;-43.570;172.580;2023-07-13T00:14:25;100669.94;;;13.26;55.04
68855;BME280;69984;-43.570;172.580;2023-07-13T00:16:53;100670.63;;;13.36;55.69
68855;BME280;69984;-43.570;172.580;2023-07-13T00:19:20;100674.22;;;13.19;55.36
68855;BME280;69984;-43.570;172.580;2023-07-13T00:21:47;100672.81;;;12.90;55.37
68855;BME280;69984;-43.570;172.580;2023-07-13T00:24:16;100674.72;;;13.22;55.29
68855;BME280;69984;-43.570;172.580;2023-07-13T00:26:49;100676.69;;;13.12;54.57
68855;BME280;69984;-43.570;172.580;2023-07-13T00:29:17;100682.44;;;13.24;55.34
68855;BME280;69984;-43.570;172.580;2023-07-13T00:31:44;100694.84;;;12.89;55.09
68855;BME280;69984;-43.570;172.580;2023-07-13T00:34:12;100687.47;;;13.01;55.46
68855;BME280;69984;-43.570;172.580;2023-07-13T00:36:39;100692.63;;;13.11;56.02
68855;BME280;69984;-43.570;172.580;2023-07-13T00:39:06;100702.50;;;13.25;56.60
68855;BME280;69984;-43.570;172.580;2023-07-13T00:41:33;100707.69;;;13.00;56.66
68855;BME280;69984;-43.570;172.580;2023-07-13T00:44:02;100714.03;;;13.16;57.54
68855;BME280;69984;-43.570;172.580;2023-07-13T00:46:32;100711.81;;;13.03;57.37
68855;BME280;69984;-43.570;172.580;2023-07-13T00:49:03;100709.25;;;12.69;57.73
68855;BME280;69984;-43.570;172.580;2023-07-13T00:51:39;100720.38;;;13.05;58.38
68855;BME280;69984;-43.570;172.580;2023-07-13T00:54:11;100716.88;;;12.96;58.44
68855;BME280;69984;-43.570;172.580;2023-07-13T00:56:40;100716.44;;;13.09;57.54
68855;BME280;69984;-43.570;172.580;2023-07-13T00:59:08;100709.34;;;13.01;59.11
68855;BME280;69984;-43.570;172.580;2023-07-13T01:01:37;100706.88;;;13.00;56.99
68855;BME280;69984;-43.570;172.580;2023-07-13T01:04:05;100715.16;;;13.13;57.68
68855;BME280;69984;-43.570;172.580;2023-07-13T01:06:38;100717.25;;;13.01;57.74
68855;BME280;69984;-43.570;172.580;2023-07-13T01:09:08;100713.78;;;13.01;58.00
68855;BME280;69984;-43.570;172.580;2023-07-13T01:11:36;100714.19;;;13.22;57.79
68855;BME280;69984;-43.570;172.580;2023-07-13T01:14:04;100708.44;;;13.19;57.13
68855;BME280;69984;-43.570;172.580;2023-07-13T01:16:33;100713.28;;;12.97;57.67
68855;BME280;69984;-43.570;172.580;2023-07-13T01:19:02;100717.88;;;12.95;58.15
68855;BME280;69984;-43.570;172.580;2023-07-13T01:21:33;100724.56;;;13.32;58.35
68855;BME280;69984;-43.570;172.580;2023-07-13T01:24:01;100722.41;;;13.19;58.87
68855;BME280;69984;-43.570;172.580;2023-07-13T01:26:28;100726.19;;;12.75;60.17
68855;BME280;69984;-43.570;172.580;2023-07-13T01:28:55;100735.44;;;13.37;59.35
68855;BME280;69984;-43.570;172.580;2023-07-13T01:31:22;100726.19;;;13.25;60.28
68855;BME280;69984;-43.570;172.580;2023-07-13T01:33:49;100730.84;;;13.39;58.66
68855;BME280;69984;-43.570;172.580;2023-07-13T01:36:17;100730.16;;;13.45;58.59
68855;BME280;69984;-43.570;172.580;2023-07-13T01:38:44;100724.75;;;13.71;59.52
68855;BME280;69984;-43.570;172.580;2023-07-13T01:41:11;100725.44;;;13.65;58.96
68855;BME280;69984;-43.570;172.580;2023-07-13T01:43:39;100731.03;;;13.86;58.20
68855;BME280;69984;-43.570;172.580;2023-07-13T01:46:06;100725.41;;;13.57;58.62
68855;BME280;69984;-43.570;172.580;2023-07-13T01:48:33;100725.41;;;13.73;59.10
68855;BME280;69984;-43.570;172.580;2023-07-13T01:51:00;100716.53;;;13.82;59.08
68855;BME280;69984;-43.570;172.580;2023-07-13T01:53:27;100719.16;;;13.98;59.22
68855;BME280;69984;-43.570;172.580;2023-07-13T01:55:54;100712.75;;;13.84;60.12
68855;BME280;69984;-43.570;172.580;2023-07-13T01:58:21;100710.25;;;13.99;59.20
68855;BME280;69984;-43.570;172.580;2023-07-13T02:00:49;100703.66;;;14.03;58.71
68855;BME280;69984;-43.570;172.580;2023-07-13T02:03:16;100697.34;;;14.36;58.38
68855;BME280;69984;-43.570;172.580;2023-07-13T02:05:44;100704.66;;;14.10;58.76
68855;BME280;69984;-43.570;172.580;2023-07-13T02:08:11;100699.31;;;14.42;57.91
68855;BME280;69984;-43.570;172.580;2023-07-13T02:10:38;100692.72;;;14.30;57.82
68855;BME280;69984;-43.570;172.580;2023-07-13T02:13:07;100696.72;;;15.04;56.68
68855;BME280;69984;-43.570;172.580;2023-07-13T02:15:37;100698.78;;;14.86;56.65
68855;BME280;69984;-43.570;172.580;2023-07-13T02:18:04;100697.44;;;15.66;54.47
68855;BME280;69984;-43.570;172.580;2023-07-13T02:20:31;100706.22;;;16.04;54.55
68855;BME280;69984;-43.570;172.580;2023-07-13T02:22:59;100699.03;;;15.30;55.44
68855;BME280;69984;-43.570;172.580;2023-07-13T02:25:26;100700.03;;;15.74;55.21
68855;BME280;69984;-43.570;172.580;2023-07-13T02:27:53;100697.53;;;15.05;56.50
68855;BME280;69984;-43.570;172.580;2023-07-13T02:30:20;100689.09;;;14.31;58.59
68855;BME280;69984;-43.570;172.580;2023-07-13T02:32:50;100691.41;;;14.42;59.43
68855;BME280;69984;-43.570;172.580;2023-07-13T02:35:17;100687.22;;;15.18;58.16
68855;BME280;69984;-43.570;172.580;2023-07-13T02:37:44;100691.47;;;14.96;57.82
68855;BME280;69984;-43.570;172.580;2023-07-13T02:40:12;100687.72;;;15.44;56.38
68855;BME280;69984;-43.570;172.580;2023-07-13T02:42:39;100681.41;;;14.69;58.97
68855;BME280;69984;-43.570;172.580;2023-07-13T02:45:07;100679.91;;;14.11;59.62
68855;BME280;69984;-43.570;172.580;2023-07-13T02:47:36;100681.41;;;13.97;60.44
68855;BME280;69984;-43.570;172.580;2023-07-13T02:50:03;100691.94;;;14.14;61.19
68855;BME280;69984;-43.570;172.580;2023-07-13T02:52:30;100689.66;;;14.66;58.26
68855;BME280;69984;-43.570;172.580;2023-07-13T02:54:57;100681.78;;;14.88;57.71
68855;BME280;69984;-43.570;172.580;2023-07-13T02:57:24;100685.63;;;14.78;57.54
68855;BME280;69984;-43.570;172.580;2023-07-13T02:59:54;100702.38;;;14.54;58.61
68855;BME280;69984;-43.570;172.580;2023-07-13T03:02:21;100699.25;;;15.43;56.41
68855;BME280;69984;-43.570;172.580;2023-07-13T03:04:49;100712.94;;;15.69;54.70
68855;BME280;69984;-43.570;172.580;2023-07-13T03:07:16;100718.00;;;15.79;54.87
68855;BME280;69984;-43.570;172.580;2023-07-13T03:09:43;100719.97;;;15.77;54.66
68855;BME280;69984;-43.570;172.580;2023-07-13T03:12:10;100729.66;;;14.38;58.16
68855;BME280;69984;-43.570;172.580;2023-07-13T03:14:37;100728.84;;;14.06;59.51
68855;BME280;69984;-43.570;172.580;2023-07-13T03:17:04;100719.25;;;14.45;58.09
68855;BME280;69984;-43.570;172.580;2023-07-13T03:19:34;100721.28;;;14.74;57.67
68855;BME280;69984;-43.570;172.580;2023-07-13T03:22:01;100731.69;;;15.60;55.44
68855;BME280;69984;-43.570;172.580;2023-07-13T03:24:28;100740.53;;;14.82;57.71
68855;BME280;69984;-43.570;172.580;2023-07-13T03:26:55;100738.97;;;14.65;58.51
68855;BME280;69984;-43.570;172.580;2023-07-13T03:29:23;100737.91;;;15.44;55.75
68855;BME280;69984;-43.570;172.580;2023-07-13T03:31:50;100748.28;;;15.15;56.18
68855;BME280;69984;-43.570;172.580;2023-07-13T03:34:17;100756.94;;;14.62;57.73
68855;BME280;69984;-43.570;172.580;2023-07-13T03:36:44;100756.31;;;14.60;57.71
68855;BME280;69984;-43.570;172.580;2023-07-13T03:39:11;100765.13;;;14.75;58.06
68855;BME280;69984;-43.570;172.580;2023-07-13T03:41:38;100767.06;;;14.18;58.95
68855;BME280;69984;-43.570;172.580;2023-07-13T03:44:05;100764.44;;;14.18;59.77
68855;BME280;69984;-43.570;172.580;2023-07-13T03:46:33;100765.75;;;13.97;59.22
68855;BME280;69984;-43.570;172.580;2023-07-13T03:49:00;100771.19;;;13.88;59.77
68855;BME280;69984;-43.570;172.580;2023-07-13T03:51:27;100770.00;;;13.58;61.33
68855;BME280;69984;-43.570;172.580;2023-07-13T03:53:54;100770.38;;;13.87;59.93
68855;BME280;69984;-43.570;172.580;2023-07-13T03:56:22;100783.84;;;13.52;61.25
68855;BME280;69984;-43.570;172.580;2023-07-13T03:58:50;100777.78;;;13.68;61.20
68855;BME280;69984;-43.570;172.580;2023-07-13T04:01:19;100782.19;;;13.59;60.69
68855;BME280;69984;-43.570;172.580;2023-07-13T04:03:46;100793.56;;;13.76;60.95
68855;BME280;69984;-43.570;172.580;2023-07-13T04:06:22;100801.97;;;13.79;60.62
68855;BME280;69984;-43.570;172.580;2023-07-13T04:08:52;100799.19;;;14.05;60.15
68855;BME280;69984;-43.570;172.580;2023-07-13T04:11:21;100795.34;;;13.51;62.23
68855;BME280;69984;-43.570;172.580;2023-07-13T04:13:49;100807.75;;;13.75;60.83
68855;BME280;69984;-43.570;172.580;2023-07-13T04:16:18;100805.38;;;13.39;62.44
68855;BME280;69984;-43.570;172.580;2023-07-13T04:18:47;100808.47;;;13.35;62.47
68855;BME280;69984;-43.570;172.580;2023-07-13T04:21:15;100811.31;;;13.49;61.64
68855;BME280;69984;-43.570;172.580;2023-07-13T04:23:42;100813.00;;;13.67;61.70
68855;BME280;69984;-43.570;172.580;2023-07-13T04:26:10;100814.34;;;13.87;61.16
68855;BME280;69984;-43.570;172.580;2023-07-13T04:28:37;100805.59;;;13.94;60.69
68855;BME280;69984;-43.570;172.580;2023-07-13T04:31:05;100809.84;;;13.55;61.78
68855;BME280;69984;-43.570;172.580;2023-07-13T04:33:32;100814.97;;;13.57;61.86
68855;BME280;69984;-43.570;172.580;2023-07-13T04:36:00;100819.78;;;14.01;60.99
68855;BME280;69984;-43.570;172.580;2023-07-13T04:38:29;100823.53;;;13.83;61.32
68855;BME280;69984;-43.570;172.580;2023-07-13T04:40:59;100828.28;;;13.55;62.01
68855;BME280;69984;-43.570;172.580;2023-07-13T04:43:28;100821.03;;;13.49;63.19
68855;BME280;69984;-43.570;172.580;2023-07-13T04:45:55;100829.06;;;13.39;63.27
68855;BME280;69984;-43.570;172.580;2023-07-13T04:48:23;100830.16;;;13.21;63.41
68855;BME280;69984;-43.570;172.580;2023-07-13T04:50:57;100825.78;;;13.03;63.54
68855;BME280;69984;-43.570;172.580;2023-07-13T04:53:26;100825.84;;;13.20;62.95
68855;BME280;69984;-43.570;172.580;2023-07-13T04:55:53;100827.28;;;13.56;62.42
68855;BME280;69984;-43.570;172.580;2023-07-13T04:58:22;100847.00;;;13.36;62.09
68855;BME280;69984;-43.570;172.580;2023-07-13T05:00:50;100856.34;;;13.30;62.85
68855;BME280;69984;-43.570;172.580;2023-07-13T05:03:17;100849.50;;;13.62;61.96
68855;BME280;69984;-43.570;172.580;2023-07-13T05:05:58;100855.97;;;13.67;61.34
68855;BME280;69984;-43.570;172.580;2023-07-13T05:08:26;100864.13;;;13.48;61.65
68855;BME280;69984;-43.570;172.580;2023-07-13T05:10:54;100852.03;;;13.79;60.74
68855;BME280;69984;-43.570;172.580;2023-07-13T05:13:22;100846.28;;;13.84;60.69
68855;BME280;69984;-43.570;172.580;2023-07-13T05:16:01;100849.59;;;14.10;59.86
68855;BME280;69984;-43.570;172.580;2023-07-13T05:18:28;100854.88;;;14.18;60.11
68855;BME280;69984;-43.570;172.580;2023-07-13T05:21:04;100861.78;;;13.95;60.62
68855;BME280;69984;-43.570;172.580;2023-07-13T05:23:33;100861.28;;;14.16;60.38
68855;BME280;69984;-43.570;172.580;2023-07-13T05:26:01;100871.50;;;13.94;61.20
68855;BME280;69984;-43.570;172.580;2023-07-13T05:28:29;100876.56;;;13.80;62.14
68855;BME280;69984;-43.570;172.580;2023-07-13T05:30:56;100868.31;;;13.67;62.69
68855;BME280;69984;-43.570;172.580;2023-07-13T05:33:24;100877.50;;;13.63;62.72
68855;BME280;69984;-43.570;172.580;2023-07-13T05:35:52;100859.13;;;13.95;61.96
68855;BME280;69984;-43.570;172.580;2023-07-13T05:38:19;100870.16;;;13.74;62.51
68855;BME280;69984;-43.570;172.580;2023-07-13T05:40:46;100877.69;;;13.69;62.87
68855;BME280;69984;-43.570;172.580;2023-07-13T05:43:14;100882.66;;;13.80;62.48
68855;BME280;69984;-43.570;172.580;2023-07-13T05:45:41;100883.06;;;13.51;63.92
68855;BME280;69984;-43.570;172.580;2023-07-13T05:48:08;100874.69;;;13.56;62.91
68855;BME280;69984;-43.570;172.580;2023-07-13T05:50:35;100876.22;;;13.67;63.00
68855;BME280;69984;-43.570;172.580;2023-07-13T05:53:02;100877.38;;;13.80;62.77
68855;BME280;69984;-43.570;172.580;2023-07-13T05:55:30;100879.50;;;13.61;63.47
68855;BME280;69984;-43.570;172.580;2023-07-13T05:57:57;100883.00;;;13.77;63.19
68855;BME280;69984;-43.570;172.580;2023-07-13T06:00:24;100881.84;;;13.72;63.47
68855;BME280;69984;-43.570;172.580;2023-07-13T06:02:51;100889.03;;;13.62;63.96
68855;BME280;69984;-43.570;172.580;2023-07-13T06:05:19;100878.69;;;13.76;63.24
68855;BME280;69984;-43.570;172.580;2023-07-13T06:07:46;100888.00;;;13.46;64.04
68855;BME280;69984;-43.570;172.580;2023-07-13T06:10:13;100892.16;;;13.23;65.64
68855;BME280;69984;-43.570;172.580;2023-07-13T06:12:40;100898.28;;;12.98;66.86
68855;BME280;69984;-43.570;172.580;2023-07-13T06:15:08;100897.28;;;12.99;66.65
68855;BME280;69984;-43.570;172.580;2023-07-13T06:17:35;100897.59;;;12.96;66.78
68855;BME280;69984;-43.570;172.580;2023-07-13T06:20:03;100896.50;;;13.07;66.55
68855;BME280;69984;-43.570;172.580;2023-07-13T06:22:30;100884.78;;;13.27;65.75
68855;BME280;69984;-43.570;172.580;2023-07-13T06:24:57;100897.44;;;13.23;66.11
68855;BME280;69984;-43.570;172.580;2023-07-13T06:27:24;100905.38;;;13.31;65.36
68855;BME280;69984;-43.570;172.580;2023-07-13T06:29:51;100906.34;;;13.30;65.15
68855;BME280;69984;-43.570;172.580;2023-07-13T06:32:18;100898.56;;;12.95;66.71
68855;BME280;69984;-43.570;172.580;2023-07-13T06:34:45;100894.97;;;12.96;68.01
68855;BME280;69984;-43.570;172.580;2023-07-13T06:37:13;100890.69;;;12.95;66.54
68855;BME280;69984;-43.570;172.580;2023-07-13T06:39:40;100892.78;;;12.91;65.53
68855;BME280;69984;-43.570;172.580;2023-07-13T06:42:07;100904.63;;;12.87;66.71
68855;BME280;69984;-43.570;172.580;2023-07-13T06:44:34;100894.66;;;12.99;66.46
68855;BME280;69984;-43.570;172.580;2023-07-13T06:47:01;100897.78;;;13.02;66.54
68855;BME280;69984;-43.570;172.580;2023-07-13T06:49:28;100905.22;;;12.81;66.44
68855;BME280;69984;-43.570;172.580;2023-07-13T06:51:55;100914.00;;;12.90;66.67
68855;BME280;69984;-43.570;172.580;2023-07-13T06:54:22;100920.84;;;12.39;68.74
68855;BME280;69984;-43.570;172.580;2023-07-13T06:56:49;100923.09;;;11.81;70.89
68855;BME280;69984;-43.570;172.580;2023-07-13T06:59:16;100916.34;;;12.32;69.38
68855;BME280;69984;-43.570;172.580;2023-07-13T07:01:43;100925.75;;;12.52;69.14
68855;BME280;69984;-43.570;172.580;2023-07-13T07:04:10;100929.22;;;12.17;69.88
68855;BME280;69984;-43.570;172.580;2023-07-13T07:06:37;100927.38;;;12.18;70.85
68855;BME280;69984;-43.570;172.580;2023-07-13T07:09:04;100938.94;;;12.42;69.75
68855;BME280;69984;-43.570;172.580;2023-07-13T07:11:31;100934.44;;;12.52;69.30
68855;BME280;69984;-43.570;172.580;2023-07-13T07:13:58;100935.09;;;12.72;68.66
68855;BME280;69984;-43.570;172.580;2023-07-13T07:16:26;100936.19;;;12.44;69.55
68855;BME280;69984;-43.570;172.580;2023-07-13T07:18:53;100931.78;;;12.52;68.95
68855;BME280;69984;-43.570;172.580;2023-07-13T07:21:20;100927.88;;;12.57;67.95
68855;BME280;69984;-43.570;172.580;2023-07-13T07:23:49;100931.31;;;12.31;68.21
68855;BME280;69984;-43.570;172.580;2023-07-13T07:26:16;100929.72;;;12.03;69.30
68855;BME280;69984;-43.570;172.580;2023-07-13T07:28:43;100929.34;;;12.33;68.24
68855;BME280;69984;-43.570;172.580;2023-07-13T07:31:10;100922.97;;;12.36;68.53
68855;BME280;69984;-43.570;172.580;2023-07-13T07:33:38;100921.69;;;12.40;69.07
68855;BME280;69984;-43.570;172.580;2023-07-13T07:36:05;100938.41;;;12.39;69.38
68855;BME280;69984;-43.570;172.580;2023-07-13T07:38:32;100929.13;;;12.44;69.32
68855;BME280;69984;-43.570;172.580;2023-07-13T07:41:05;100914.84;;;12.29;69.29
68855;BME280;69984;-43.570;172.580;2023-07-13T07:43:32;100913.06;;;12.12;69.37
68855;BME280;69984;-43.570;172.580;2023-07-13T07:45:59;100907.41;;;12.07;69.45
68855;BME280;69984;-43.570;172.580;2023-07-13T07:48:26;100904.13;;;12.05;69.93
68855;BME280;69984;-43.570;172.580;2023-07-13T07:50:54;100899.63;;;12.15;69.99
68855;BME280;69984;-43.570;172.580;2023-07-13T07:53:21;100907.13;;;11.92;70.10
68855;BME280;69984;-43.570;172.580;2023-07-13T07:55:48;100919.72;;;11.89;70.13
68855;BME280;69984;-43.570;172.580;2023-07-13T07:58:17;100910.19;;;11.88;69.53
68855;BME280;69984;-43.570;172.580;2023-07-13T08:00:44;100903.66;;;11.65;69.91
68855;BME280;69984;-43.570;172.580;2023-07-13T08:03:11;100907.34;;;11.81;69.31
68855;BME280;69984;-43.570;172.580;2023-07-13T08:05:38;100900.19;;;11.74;69.86
68855;BME280;69984;-43.570;172.580;2023-07-13T08:08:05;100899.75;;;11.69;70.83
68855;BME280;69984;-43.570;172.580;2023-07-13T08:10:34;100907.34;;;11.44;71.40
68855;BME280;69984;-43.570;172.580;2023-07-13T08:13:02;100900.50;;;11.34;71.74
68855;BME280;69984;-43.570;172.580;2023-07-13T08:15:29;100898.47;;;11.28;72.18
68855;BME280;69984;-43.570;172.580;2023-07-13T08:17:56;100888.09;;;11.36;71.20
68855;BME280;69984;-43.570;172.580;2023-07-13T08:20:23;100891.25;;;11.02;73.13
68855;BME280;69984;-43.570;172.580;2023-07-13T08:22:50;100884.78;;;10.97;73.27
68855;BME280;69984;-43.570;172.580;2023-07-13T08:25:17;100882.03;;;10.89;73.19
68855;BME280;69984;-43.570;172.580;2023-07-13T08:27:45;100882.59;;;10.92;73.13
68855;BME280;69984;-43.570;172.580;2023-07-13T08:30:13;100878.03;;;10.85;74.15
68855;BME280;69984;-43.570;172.580;2023-07-13T08:32:40;100884.09;;;10.95;73.16
68855;BME280;69984;-43.570;172.580;2023-07-13T08:35:07;100875.69;;;10.91;72.65
68855;BME280;69984;-43.570;172.580;2023-07-13T08:37:34;100868.94;;;11.26;72.04
68855;BME280;69984;-43.570;172.580;2023-07-13T08:40:01;100865.00;;;12.20;67.53
68855;BME280;69984;-43.570;172.580;2023-07-13T08:48:04;100866.75;;;11.66;66.85
68855;BME280;69984;-43.570;172.580;2023-07-13T08:50:35;100862.09;;;10.59;71.44
68855;BME280;69984;-43.570;172.580;2023-07-13T08:53:06;100853.88;;;10.25;72.19
68855;BME280;69984;-43.570;172.580;2023-07-13T08:55:37;100848.50;;;10.17;72.47
68855;BME280;69984;-43.570;172.580;2023-07-13T08:58:14;100852.66;;;10.20;72.71
68855;BME280;69984;-43.570;172.580;2023-07-13T09:04:06;100839.25;;;10.32;72.27
68855;BME280;69984;-43.570;172.580;2023-07-13T09:07:12;100827.94;;;10.32;71.77
68855;BME280;69984;-43.570;172.580;2023-07-13T09:10:41;100831.56;;;10.21;71.84
68855;BME280;69984;-43.570;172.580;2023-07-13T09:15:43;100826.59;;;10.09;73.52
68855;BME280;69984;-43.570;172.580;2023-07-13T09:20:59;100816.53;;;9.94;75.12
68855;BME280;69984;-43.570;172.580;2023-07-13T09:23:28;100812.78;;;9.97;74.88
68855;BME280;69984;-43.570;172.580;2023-07-13T09:28:42;100814.16;;;10.11;73.75
68855;BME280;69984;-43.570;172.580;2023-07-13T09:31:15;100819.69;;;9.88;74.33
68855;BME280;69984;-43.570;172.580;2023-07-13T09:33:43;100815.81;;;9.73;74.06
68855;BME280;69984;-43.570;172.580;2023-07-13T09:39:10;100807.56;;;9.97;73.88
68855;BME280;69984;-43.570;172.580;2023-07-13T09:44:55;100800.38;;;9.89;72.68
68855;BME280;69984;-43.570;172.580;2023-07-13T09:47:26;100792.25;;;9.92;72.57
68855;BME280;69984;-43.570;172.580;2023-07-13T09:49:58;100781.94;;;9.72;72.20
68855;BME280;69984;-43.570;172.580;2023-07-13T09:52:27;100776.28;;;9.76;73.48
68855;BME280;69984;-43.570;172.580;2023-07-13T09:54:55;100783.59;;;9.63;74.06
68855;BME280;69984;-43.570;172.580;2023-07-13T09:57:28;100782.91;;;9.71;75.18
68855;BME280;69984;-43.570;172.580;2023-07-13T09:59:56;100775.47;;;9.76;72.58
68855;BME280;69984;-43.570;172.580;2023-07-13T10:02:31;100772.84;;;9.57;74.04
68855;BME280;69984;-43.570;172.580;2023-07-13T10:05:13;100770.75;;;9.41;73.69
68855;BME280;69984;-43.570;172.580;2023-07-13T10:07:45;100759.06;;;9.45;74.13
68855;BME280;69984;-43.570;172.580;2023-07-13T10:10:22;100760.03;;;9.73;74.33
68855;BME280;69984;-43.570;172.580;2023-07-13T10:12:50;100768.31;;;9.78;73.60
68855;BME280;69984;-43.570;172.580;2023-07-13T10:15:23;100754.94;;;9.71;74.76
68855;BME280;69984;-43.570;172.580;2023-07-13T10:17:53;100755.06;;;9.79;75.03
68855;BME280;69984;-43.570;172.580;2023-07-13T10:20:22;100760.19;;;9.81;73.56
68855;BME280;69984;-43.570;172.580;2023-07-13T10:23:05;100757.81;;;9.97;74.15
68855;BME280;69984;-43.570;172.580;2023-07-13T10:25:41;100741.13;;;10.64;70.77
68855;BME280;69984;-43.570;172.580;2023-07-13T10:30:41;100734.25;;;10.80;69.99
68855;BME280;69984;-43.570;172.580;2023-07-13T10:33:12;100722.03;;;10.71;69.80
68855;BME280;69984;-43.570;172.580;2023-07-13T10:35:42;100720.56;;;10.59;70.59
68855;BME280;69984;-43.570;172.580;2023-07-13T10:38:21;100715.75;;;10.27;72.81
68855;BME280;69984;-43.570;172.580;2023-07-13T10:41:03;100728.94;;;10.35;72.73
68855;BME280;69984;-43.570;172.580;2023-07-13T10:43:33;100740.59;;;9.75;74.52
68855;BME280;69984;-43.570;172.580;2023-07-13T10:46:05;100734.41;;;9.57;76.60
68855;BME280;69984;-43.570;172.580;2023-07-13T10:48:34;100737.19;;;9.56;76.71
68855;BME280;69984;-43.570;172.580;2023-07-13T10:51:05;100727.28;;;9.49;77.04
68855;BME280;69984;-43.570;172.580;2023-07-13T10:53:38;100731.38;;;9.33;76.93
68855;BME280;69984;-43.570;172.580;2023-07-13T10:56:27;100722.56;;;9.43;77.27
68855;BME280;69984;-43.570;172.580;2023-07-13T10:59:23;100720.22;;;9.50;77.08
68855;BME280;69984;-43.570;172.580;2023-07-13T11:02:00;100725.59;;;9.58;77.26
68855;BME280;69984;-43.570;172.580;2023-07-13T11:05:13;100719.13;;;9.62;76.72
68855;BME280;69984;-43.570;172.580;2023-07-13T11:07:56;100716.78;;;9.88;76.06
68855;BME280;69984;-43.570;172.580;2023-07-13T11:10:51;100709.91;;;9.77;75.24
68855;BME280;69984;-43.570;172.580;2023-07-13T11:16:37;100704.31;;;10.19;73.99
68855;BME280;69984;-43.570;172.580;2023-07-13T11:19:23;100700.47;;;10.13;73.86
68855;BME280;69984;-43.570;172.580;2023-07-13T11:24:56;100690.53;;;10.07;74.10
68855;BME280;69984;-43.570;172.580;2023-07-13T11:30:21;100668.25;;;9.93;75.35
68855;BME280;69984;-43.570;172.580;2023-07-13T11:32:52;100653.38;;;9.94;75.21
68855;BME280;69984;-43.570;172.580;2023-07-13T11:35:35;100642.03;;;10.03;75.05
68855;BME280;69984;-43.570;172.580;2023-07-13T11:38:16;100642.00;;;10.22;73.91
68855;BME280;69984;-43.570;172.580;2023-07-13T11:40:46;100637.16;;;10.27;73.09
68855;BME280;69984;-43.570;172.580;2023-07-13T11:43:15;100639.78;;;10.27;72.82
68855;BME280;69984;-43.570;172.580;2023-07-13T11:45:43;100646.88;;;10.44;73.19
68855;BME280;69984;-43.570;172.580;2023-07-13T11:48:27;100654.25;;;10.59;71.87
68855;BME280;69984;-43.570;172.580;2023-07-13T11:51:03;100661.09;;;10.69;71.61
68855;BME280;69984;-43.570;172.580;2023-07-13T11:53:44;100654.72;;;10.72;71.02
68855;BME280;69984;-43.570;172.580;2023-07-13T11:56:13;100651.13;;;10.73;70.67
68855;BME280;69984;-43.570;172.580;2023-07-13T11:58:40;100653.72;;;10.55;71.40
68855;BME280;69984;-43.570;172.580;2023-07-13T12:01:20;100654.41;;;10.75;71.19
68855;BME280;69984;-43.570;172.580;2023-07-13T12:03:48;100647.41;;;10.48;72.11
68855;BME280;69984;-43.570;172.580;2023-07-13T12:06:31;100651.56;;;10.68;70.70
68855;BME280;69984;-43.570;172.580;2023-07-13T12:09:09;100647.13;;;10.51;71.77
68855;BME280;69984;-43.570;172.580;2023-07-13T12:11:41;100636.19;;;10.28;72.24
68855;BME280;69984;-43.570;172.580;2023-07-13T12:14:16;100634.25;;;10.58;71.57
68855;BME280;69984;-43.570;172.580;2023-07-13T12:16:47;100627.22;;;10.58;71.24
68855;BME280;69984;-43.570;172.580;2023-07-13T12:19:26;100624.06;;;10.55;71.69
68855;BME280;69984;-43.570;172.580;2023-07-13T12:21:56;100610.97;;;10.55;71.54
68855;BME280;69984;-43.570;172.580;2023-07-13T12:24:25;100616.22;;;10.72;71.53
68855;BME280;69984;-43.570;172.580;2023-07-13T12:27:01;100608.06;;;10.93;71.11
68855;BME280;69984;-43.570;172.580;2023-07-13T12:29:31;100605.88;;;10.88;70.62
68855;BME280;69984;-43.570;172.580;2023-07-13T12:31:59;100604.41;;;11.03;70.55
68855;BME280;69984;-43.570;172.580;2023-07-13T12:34:27;100594.03;;;11.20;69.22
68855;BME280;69984;-43.570;172.580;2023-07-13T12:37:01;100590.22;;;11.14;70.24
68855;BME280;69984;-43.570;172.580;2023-07-13T12:39:35;100590.75;;;11.18;70.00
68855;BME280;69984;-43.570;172.580;2023-07-13T12:42:27;100574.91;;;11.27;69.89
68855;BME280;69984;-43.570;172.580;2023-07-13T12:45:41;100572.31;;;11.10;70.08
68855;BME280;69984;-43.570;172.580;2023-07-13T12:47:58;100563.34;;;11.38;68.87
68855;BME280;69984;-43.570;172.580;2023-07-13T12:50:50;100557.25;;;11.29;69.19
68855;BME280;69984;-43.570;172.580;2023-07-13T12:53:23;100566.63;;;11.66;68.11
68855;BME280;69984;-43.570;172.580;2023-07-13T12:56:01;100564.34;;;11.63;68.00
68855;BME280;69984;-43.570;172.580;2023-07-13T12:58:36;100558.41;;;11.86;67.02
68855;BME280;69984;-43.570;172.580;2023-07-13T13:01:04;100551.03;;;11.82;66.88
68855;BME280;69984;-43.570;172.580;2023-07-13T13:03:49;100526.56;;;11.81;66.91
68855;BME280;69984;-43.570;172.580;2023-07-13T13:06:29;100524.63;;;11.66;67.06
68855;BME280;69984;-43.570;172.580;2023-07-13T13:08:58;100532.31;;;11.59;67.29
68855;BME280;69984;-43.570;172.580;2023-07-13T13:11:27;100543.94;;;11.82;67.32